createdAt,value
2019-03-29T00:00:14.070Z,11.20
2019-03-29T00:01:14.069Z,12.80
2019-03-29T00:02:14.087Z,12.80
2019-03-29T00:03:14.061Z,13.00
2019-03-29T00:04:14.040Z,12.30
2019-03-29T00:05:14.037Z,12.50
2019-03-29T00:06:14.014Z,12.80
2019-03-29T00:07:14.034Z,13.40
2019-03-29T00:08:13.980Z,13.60
2019-03-29T00:09:13.970Z,13.00
2019-03-29T00:10:13.967Z,13.20
2019-03-29T00:11:13.951Z,13.00
2019-03-29T00:12:13.952Z,13.90
2019-03-29T00:13:14.764Z,13.60
2019-03-29T00:14:13.945Z,14.30
2019-03-29T00:15:13.906Z,14.60
2019-03-29T00:16:13.898Z,14.40
2019-03-29T00:17:13.887Z,13.80
2019-03-29T00:18:13.873Z,14.60
2019-03-29T00:19:13.869Z,13.50
2019-03-29T00:20:13.858Z,13.50
2019-03-29T00:21:13.913Z,13.80
2019-03-29T00:22:13.831Z,12.80
2019-03-29T00:23:13.818Z,12.90
2019-03-29T00:24:14.938Z,13.00
2019-03-29T00:25:13.814Z,12.40
2019-03-29T00:26:13.786Z,13.20
2019-03-29T00:27:13.783Z,13.50
2019-03-29T00:28:13.813Z,13.00
2019-03-29T00:29:13.776Z,12.60
2019-03-29T00:30:13.766Z,12.90
2019-03-29T00:31:13.971Z,12.20
2019-03-29T00:32:13.724Z,12.70
2019-03-29T00:33:13.724Z,13.10
2019-03-29T00:34:13.700Z,13.50
2019-03-29T00:35:13.704Z,13.10
2019-03-29T00:36:13.684Z,13.20
2019-03-29T00:37:13.679Z,13.00
2019-03-29T00:38:13.662Z,12.60
2019-03-29T00:39:14.909Z,13.30
2019-03-29T00:40:13.657Z,13.40
2019-03-29T00:41:13.621Z,13.20
2019-03-29T00:42:13.617Z,12.80
2019-03-29T00:43:13.603Z,13.10
2019-03-29T00:44:13.597Z,13.70
2019-03-29T00:45:13.582Z,13.30
2019-03-29T00:46:13.576Z,13.40
2019-03-29T00:47:13.558Z,12.90
2019-03-29T00:48:13.546Z,13.60
2019-03-29T00:49:14.301Z,13.70
2019-03-29T00:50:13.526Z,14.00
2019-03-29T00:51:13.515Z,14.00
2019-03-29T00:52:13.509Z,13.80
2019-03-29T00:53:13.502Z,13.60
2019-03-29T00:54:13.479Z,13.70
2019-03-29T00:55:13.469Z,14.40
2019-03-29T00:56:13.456Z,14.80
2019-03-29T00:57:13.448Z,13.70
2019-03-29T00:58:13.448Z,13.70
2019-03-29T00:59:13.479Z,14.30
2019-03-29T01:00:13.419Z,14.70
2019-03-29T01:01:13.404Z,15.10
2019-03-29T01:02:13.391Z,15.50
2019-03-29T01:03:13.395Z,15.50
2019-03-29T01:04:13.374Z,15.70
2019-03-29T01:05:13.382Z,15.70
2019-03-29T01:06:13.354Z,15.90
2019-03-29T01:07:13.375Z,15.80
2019-03-29T01:08:13.642Z,15.50
2019-03-29T01:09:13.376Z,15.70
2019-03-29T01:10:13.378Z,16.50
2019-03-29T01:11:13.348Z,16.70
2019-03-29T01:12:13.290Z,17.70
2019-03-29T01:13:13.274Z,16.70
2019-03-29T01:14:13.271Z,17.20
2019-03-29T01:15:13.260Z,16.50
2019-03-29T01:16:13.250Z,17.40
2019-03-29T01:17:13.233Z,17.60
2019-03-29T01:18:13.225Z,18.40
2019-03-29T01:19:13.219Z,18.20
2019-03-29T01:20:13.198Z,18.00
2019-03-29T01:21:13.960Z,18.40
2019-03-29T01:22:13.183Z,18.80
2019-03-29T01:23:13.169Z,18.10
2019-03-29T01:24:13.166Z,18.70
2019-03-29T01:25:13.150Z,19.00
2019-03-29T01:26:13.136Z,19.40
2019-03-29T01:27:13.125Z,18.30
2019-03-29T01:28:13.113Z,19.10
2019-03-29T01:29:13.105Z,18.90
2019-03-29T01:30:13.096Z,18.30
2019-03-29T01:31:13.106Z,19.80
2019-03-29T01:32:13.069Z,19.60
2019-03-29T01:33:13.061Z,20.20
2019-03-29T01:34:13.052Z,20.10
2019-03-29T01:35:13.052Z,20.10
2019-03-29T01:36:13.040Z,20.20
2019-03-29T01:37:13.031Z,20.50
2019-03-29T01:38:21.650Z,20.60
2019-03-29T01:39:14.013Z,20.30
2019-03-29T01:40:12.981Z,20.80
2019-03-29T01:41:12.974Z,21.10
2019-03-29T01:42:12.971Z,21.60
2019-03-29T01:43:12.956Z,19.90
2019-03-29T01:44:12.955Z,21.60
2019-03-29T01:45:12.955Z,21.20
2019-03-29T01:46:12.926Z,21.80
2019-03-29T01:47:12.905Z,21.40
2019-03-29T01:48:12.895Z,22.50
2019-03-29T01:49:12.905Z,22.00
2019-03-29T01:50:12.872Z,22.10
2019-03-29T01:51:12.868Z,22.70
2019-03-29T01:52:12.863Z,23.30
2019-03-29T01:53:12.849Z,23.90
2019-03-29T01:54:12.845Z,23.60
2019-03-29T01:55:12.829Z,23.80
2019-03-29T01:56:12.815Z,23.50
2019-03-29T01:57:12.798Z,24.10
2019-03-29T01:58:12.787Z,24.50
2019-03-29T01:59:12.790Z,23.20
2019-03-29T02:00:12.770Z,24.40
2019-03-29T02:01:12.764Z,24.40
2019-03-29T02:02:12.744Z,24.70
2019-03-29T02:03:13.166Z,24.70
2019-03-29T02:04:12.747Z,24.90
2019-03-29T02:05:12.723Z,24.30
2019-03-29T02:06:12.707Z,23.90
2019-03-29T02:07:12.690Z,25.80
2019-03-29T02:08:12.677Z,25.80
2019-03-29T02:09:12.679Z,25.90
2019-03-29T02:10:12.676Z,25.50
2019-03-29T02:11:12.655Z,25.40
2019-03-29T02:12:12.637Z,25.90
2019-03-29T02:13:12.624Z,26.10
2019-03-29T02:14:12.622Z,25.50
2019-03-29T02:15:12.610Z,25.90
2019-03-29T02:16:12.599Z,26.60
2019-03-29T02:17:12.586Z,27.40
2019-03-29T02:18:13.303Z,26.90
2019-03-29T02:19:12.590Z,27.40
2019-03-29T02:20:12.573Z,27.60
2019-03-29T02:21:12.540Z,28.30
2019-03-29T02:22:12.526Z,27.30
2019-03-29T02:23:12.517Z,27.40
2019-03-29T02:24:12.508Z,27.20
2019-03-29T02:25:12.494Z,28.50
2019-03-29T02:26:12.502Z,28.90
2019-03-29T02:27:12.486Z,29.50
2019-03-29T02:28:12.462Z,28.70
2019-03-29T02:29:12.570Z,29.70
2019-03-29T02:30:12.447Z,28.20
2019-03-29T02:31:12.457Z,28.60
2019-03-29T02:32:12.420Z,29.30
2019-03-29T02:33:12.417Z,28.20
2019-03-29T02:34:12.402Z,29.10
2019-03-29T02:35:12.392Z,28.90
2019-03-29T02:36:12.381Z,29.10
2019-03-29T02:37:12.369Z,29.70
2019-03-29T02:38:12.355Z,30.40
2019-03-29T02:39:12.343Z,28.90
2019-03-29T02:40:12.335Z,29.50
2019-03-29T02:41:12.323Z,28.60
2019-03-29T02:42:19.072Z,28.50
2019-03-29T02:43:12.299Z,27.70
2019-03-29T02:44:12.298Z,28.50
2019-03-29T02:45:12.283Z,29.40
2019-03-29T02:46:12.270Z,28.70
2019-03-29T02:47:12.256Z,28.60
2019-03-29T02:48:12.275Z,28.70
2019-03-29T02:49:13.191Z,28.60
2019-03-29T02:50:12.226Z,29.30
2019-03-29T02:51:12.216Z,28.70
2019-03-29T02:52:12.200Z,28.90
2019-03-29T02:53:12.190Z,28.20
2019-03-29T02:54:12.177Z,28.40
2019-03-29T02:55:12.238Z,28.00
2019-03-29T02:56:12.162Z,28.30
2019-03-29T02:57:12.147Z,27.80
2019-03-29T02:58:12.137Z,28.40
2019-03-29T02:59:12.132Z,29.20
2019-03-29T03:00:12.117Z,29.90
2019-03-29T03:01:12.129Z,29.10
2019-03-29T03:02:12.159Z,28.60
2019-03-29T03:03:12.112Z,29.80
2019-03-29T03:04:12.069Z,29.80
2019-03-29T03:05:12.064Z,29.20
2019-03-29T03:06:12.051Z,29.00
2019-03-29T03:07:12.045Z,29.90
2019-03-29T03:08:12.038Z,28.80
2019-03-29T03:09:14.319Z,28.80
2019-03-29T03:10:12.005Z,29.80
2019-03-29T03:11:12.008Z,30.20
2019-03-29T03:12:11.981Z,29.20
2019-03-29T03:13:11.972Z,30.00
2019-03-29T03:14:11.966Z,28.60
2019-03-29T03:15:11.960Z,30.70
2019-03-29T03:16:11.996Z,30.10
2019-03-29T03:17:11.924Z,30.50
2019-03-29T03:18:11.914Z,28.80
2019-03-29T03:19:11.907Z,30.30
2019-03-29T03:20:15.104Z,29.80
2019-03-29T03:21:11.888Z,29.20
2019-03-29T03:22:11.878Z,28.90
2019-03-29T03:23:11.886Z,30.40
2019-03-29T03:24:11.854Z,30.30
2019-03-29T03:25:11.855Z,29.50
2019-03-29T03:26:11.848Z,30.00
2019-03-29T03:27:11.833Z,29.00
2019-03-29T03:28:11.812Z,28.90
2019-03-29T03:29:11.803Z,28.80
2019-03-29T03:30:11.935Z,28.70
2019-03-29T03:31:11.782Z,28.70
2019-03-29T03:32:11.772Z,30.80
2019-03-29T03:33:11.795Z,29.00
2019-03-29T03:34:11.751Z,31.40
2019-03-29T03:35:11.757Z,30.90
2019-03-29T03:36:11.724Z,31.20
2019-03-29T03:37:11.762Z,30.60
2019-03-29T03:38:11.735Z,31.50
2019-03-29T03:39:30.100Z,31.20
2019-03-29T03:40:12.699Z,30.20
2019-03-29T03:41:11.671Z,30.50
2019-03-29T03:42:11.661Z,30.00
2019-03-29T03:43:11.669Z,32.10
2019-03-29T03:44:11.764Z,32.20
2019-03-29T03:45:11.658Z,31.00
2019-03-29T03:46:11.624Z,31.60
2019-03-29T03:47:11.610Z,30.90
2019-03-29T03:48:11.600Z,31.00
2019-03-29T03:49:11.595Z,31.10
2019-03-29T03:50:11.578Z,31.20
2019-03-29T03:51:11.692Z,31.30
2019-03-29T03:52:11.577Z,30.50
2019-03-29T03:53:11.554Z,31.20
2019-03-29T03:54:11.541Z,30.70
2019-03-29T03:55:11.528Z,30.50
2019-03-29T03:56:11.517Z,31.10
2019-03-29T03:57:11.502Z,31.20
2019-03-29T03:58:11.494Z,31.50
2019-03-29T03:59:11.492Z,31.60
2019-03-29T04:00:11.474Z,30.70
2019-03-29T04:01:11.497Z,31.30
2019-03-29T04:02:11.449Z,31.50
2019-03-29T04:03:11.441Z,31.30
2019-03-29T04:04:11.429Z,31.80
2019-03-29T04:05:11.418Z,32.20
2019-03-29T04:06:11.417Z,31.90
2019-03-29T04:07:11.404Z,31.80
2019-03-29T04:08:11.391Z,31.30
2019-03-29T04:09:11.380Z,32.60
2019-03-29T04:10:11.365Z,29.70
2019-03-29T04:11:11.372Z,32.50
2019-03-29T04:12:11.361Z,32.50
2019-03-29T04:13:11.340Z,32.10
2019-03-29T04:14:11.328Z,32.40
2019-03-29T04:15:11.312Z,31.50
2019-03-29T04:16:11.335Z,33.10
2019-03-29T04:17:11.308Z,31.30
2019-03-29T04:18:15.351Z,32.30
2019-03-29T04:19:11.287Z,31.30
2019-03-29T04:20:11.261Z,29.70
2019-03-29T04:21:11.269Z,30.80
2019-03-29T04:22:11.253Z,31.30
2019-03-29T04:23:11.232Z,30.80
2019-03-29T04:24:11.225Z,32.80
2019-03-29T04:25:11.211Z,32.40
2019-03-29T04:26:11.210Z,30.20
2019-03-29T04:27:11.191Z,30.90
2019-03-29T04:28:11.187Z,31.40
2019-03-29T04:29:11.194Z,30.60
2019-03-29T04:30:11.157Z,32.00
2019-03-29T04:31:11.195Z,32.20
2019-03-29T04:32:11.165Z,32.00
2019-03-29T04:33:11.429Z,31.50
2019-03-29T04:34:11.113Z,30.60
2019-03-29T04:35:11.109Z,31.60
2019-03-29T04:36:11.092Z,30.90
2019-03-29T04:37:11.089Z,30.90
2019-03-29T04:38:11.074Z,31.50
2019-03-29T04:39:11.138Z,30.10
2019-03-29T04:40:11.051Z,31.30
2019-03-29T04:41:11.038Z,30.30
2019-03-29T04:42:11.042Z,31.30
2019-03-29T04:43:11.021Z,30.10
2019-03-29T04:44:11.023Z,29.90
2019-03-29T04:45:11.002Z,32.10
2019-03-29T04:46:11.018Z,30.90
2019-03-29T04:47:10.990Z,31.00
2019-03-29T04:48:10.972Z,31.60
2019-03-29T04:49:10.953Z,32.90
2019-03-29T04:50:10.942Z,32.90
2019-03-29T04:51:10.936Z,32.00
2019-03-29T04:52:10.937Z,32.00
2019-03-29T04:53:10.915Z,32.20
2019-03-29T04:54:10.910Z,32.40
2019-03-29T04:55:10.898Z,31.90
2019-03-29T04:56:10.878Z,32.50
2019-03-29T04:57:10.897Z,32.70
2019-03-29T04:58:10.859Z,34.00
2019-03-29T04:59:10.845Z,32.20
2019-03-29T05:00:10.838Z,33.80
2019-03-29T05:01:10.847Z,33.60
2019-03-29T05:02:10.823Z,33.80
2019-03-29T05:03:10.807Z,32.90
2019-03-29T05:04:10.794Z,33.20
2019-03-29T05:05:10.779Z,33.40
2019-03-29T05:06:10.775Z,33.50
2019-03-29T05:07:10.781Z,32.40
2019-03-29T05:08:10.748Z,33.90
2019-03-29T05:09:10.745Z,33.30
2019-03-29T05:10:21.217Z,34.40
2019-03-29T05:11:11.726Z,33.10
2019-03-29T05:12:10.714Z,34.20
2019-03-29T05:13:10.718Z,33.20
2019-03-29T05:14:10.686Z,33.80
2019-03-29T05:15:10.675Z,33.10
2019-03-29T05:16:10.665Z,32.80
2019-03-29T05:17:10.659Z,35.30
2019-03-29T05:18:10.646Z,33.70
2019-03-29T05:19:10.635Z,33.90
2019-03-29T05:20:10.622Z,32.80
2019-03-29T05:21:10.620Z,33.10
2019-03-29T05:22:10.623Z,33.70
2019-03-29T05:23:10.606Z,35.00
2019-03-29T05:24:10.579Z,33.70
2019-03-29T05:25:10.569Z,33.60
2019-03-29T05:26:10.562Z,33.50
2019-03-29T05:27:10.583Z,32.70
2019-03-29T05:28:10.549Z,33.20
2019-03-29T05:29:10.527Z,33.10
2019-03-29T05:30:10.519Z,32.90
2019-03-29T05:31:10.516Z,32.80
2019-03-29T05:32:10.529Z,32.40
2019-03-29T05:33:10.487Z,33.70
2019-03-29T05:34:10.474Z,33.00
2019-03-29T05:35:10.570Z,33.40
2019-03-29T05:36:10.468Z,33.50
2019-03-29T05:37:10.447Z,33.00
2019-03-29T05:38:10.436Z,33.10
2019-03-29T05:39:10.423Z,33.20
2019-03-29T05:40:10.411Z,32.90
2019-03-29T05:41:10.402Z,34.50
2019-03-29T05:42:10.439Z,33.30
2019-03-29T05:43:10.385Z,33.60
2019-03-29T05:44:10.378Z,34.30
2019-03-29T05:45:10.359Z,33.70
2019-03-29T05:46:10.349Z,34.10
2019-03-29T05:47:10.338Z,33.40
2019-03-29T05:48:10.338Z,33.10
2019-03-29T05:49:10.331Z,33.80
2019-03-29T05:50:10.309Z,32.20
2019-03-29T05:51:10.308Z,33.40
2019-03-29T05:52:10.286Z,33.70
2019-03-29T05:53:10.306Z,33.00
2019-03-29T05:54:10.283Z,33.60
2019-03-29T05:55:10.254Z,33.70
2019-03-29T05:56:10.245Z,34.20
2019-03-29T05:57:10.234Z,32.80
2019-03-29T05:58:10.624Z,33.30
2019-03-29T05:59:10.232Z,32.20
2019-03-29T06:00:10.201Z,32.10
2019-03-29T06:01:10.195Z,32.90
2019-03-29T06:02:10.203Z,33.60
2019-03-29T06:03:10.436Z,34.20
2019-03-29T06:04:10.164Z,34.50
2019-03-29T06:05:10.149Z,32.70
2019-03-29T06:06:10.407Z,32.70
2019-03-29T06:07:10.125Z,33.50
2019-03-29T06:08:10.170Z,32.50
2019-03-29T06:09:10.110Z,32.70
2019-03-29T06:10:10.100Z,33.10
2019-03-29T06:11:10.091Z,34.00
2019-03-29T06:12:10.076Z,33.90
2019-03-29T06:13:10.078Z,34.10
2019-03-29T06:14:10.055Z,34.40
2019-03-29T06:15:10.053Z,35.10
2019-03-29T06:16:10.036Z,33.50
2019-03-29T06:17:10.027Z,33.30
2019-03-29T06:18:10.035Z,32.90
2019-03-29T06:19:09.997Z,32.10
2019-03-29T06:20:09.987Z,31.40
2019-03-29T06:21:09.977Z,31.50
2019-03-29T06:22:09.968Z,31.10
2019-03-29T06:23:09.970Z,31.60
2019-03-29T06:24:09.953Z,32.00
2019-03-29T06:25:09.972Z,31.30
2019-03-29T06:26:09.933Z,31.40
2019-03-29T06:27:09.930Z,30.70
2019-03-29T06:28:09.914Z,30.80
2019-03-29T06:29:09.895Z,31.10
2019-03-29T06:30:09.884Z,31.10
2019-03-29T06:31:09.873Z,31.10
2019-03-29T06:32:09.867Z,29.90
2019-03-29T06:33:09.863Z,29.80
2019-03-29T06:34:09.845Z,27.10
2019-03-29T06:35:09.837Z,27.50
2019-03-29T06:36:09.824Z,26.70
2019-03-29T06:37:09.811Z,26.40
2019-03-29T06:38:09.812Z,27.00
2019-03-29T06:39:09.814Z,25.30
2019-03-29T06:40:09.779Z,25.10
2019-03-29T06:41:09.768Z,25.40
2019-03-29T06:42:09.764Z,25.50
2019-03-29T06:43:09.745Z,24.40
2019-03-29T06:44:09.748Z,24.30
2019-03-29T06:45:09.727Z,25.30
2019-03-29T06:46:09.781Z,24.50
2019-03-29T06:47:09.704Z,23.20
2019-03-29T06:48:09.716Z,23.10
2019-03-29T06:49:09.724Z,24.30
2019-03-29T06:50:09.676Z,24.30
2019-03-29T06:51:09.664Z,24.00
2019-03-29T06:52:09.670Z,22.80
2019-03-29T06:53:09.646Z,23.70
2019-03-29T06:54:09.648Z,23.20
2019-03-29T06:55:09.622Z,22.70
2019-03-29T06:56:09.608Z,22.90
2019-03-29T06:57:09.600Z,22.40
2019-03-29T06:58:09.620Z,21.80
2019-03-29T06:59:09.584Z,20.50
2019-03-29T07:00:09.691Z,20.40
2019-03-29T07:01:09.566Z,20.80
2019-03-29T07:02:09.555Z,20.40
2019-03-29T07:03:09.546Z,19.00
2019-03-29T07:04:09.528Z,19.50
2019-03-29T07:05:09.509Z,20.10
2019-03-29T07:06:09.500Z,17.10
2019-03-29T07:07:09.496Z,17.30
2019-03-29T07:08:09.477Z,17.40
2019-03-29T07:09:09.522Z,15.70
2019-03-29T07:10:09.457Z,16.20
2019-03-29T07:11:17.267Z,16.20
2019-03-29T07:12:10.446Z,16.10
2019-03-29T07:13:09.421Z,16.80
2019-03-29T07:14:09.417Z,16.30
2019-03-29T07:15:09.441Z,15.10
2019-03-29T07:16:09.389Z,14.60
2019-03-29T07:17:10.375Z,14.10
2019-03-29T07:18:09.389Z,15.60
2019-03-29T07:19:09.367Z,15.20
2019-03-29T07:20:09.347Z,14.00
2019-03-29T07:21:20.775Z,14.40
2019-03-29T07:22:10.325Z,14.30
2019-03-29T07:23:09.315Z,14.90
2019-03-29T07:24:09.307Z,13.40
2019-03-29T07:25:09.291Z,13.90
2019-03-29T07:26:09.298Z,14.00
2019-03-29T07:27:09.295Z,13.40
2019-03-29T07:28:09.257Z,13.70
2019-03-29T07:29:09.383Z,13.50
2019-03-29T07:30:09.612Z,12.70
2019-03-29T07:31:09.225Z,13.80
2019-03-29T07:32:09.215Z,13.00
2019-03-29T07:33:09.207Z,13.10
2019-03-29T07:34:09.204Z,12.40
2019-03-29T07:35:09.182Z,13.20
2019-03-29T07:36:09.203Z,11.30
2019-03-29T07:37:09.159Z,12.10
2019-03-29T07:38:09.150Z,11.80
2019-03-29T07:39:09.173Z,11.20
2019-03-29T07:40:09.128Z,11.30
2019-03-29T07:41:09.121Z,10.90
2019-03-29T07:42:09.117Z,10.60
2019-03-29T07:43:09.093Z,11.00
2019-03-29T07:44:09.079Z,10.20
2019-03-29T07:45:10.405Z,10.30
2019-03-29T07:46:09.059Z,10.10
2019-03-29T07:47:09.052Z,10.50
2019-03-29T07:48:09.038Z,10.40
2019-03-29T07:49:09.035Z,11.30
2019-03-29T07:50:09.029Z,11.50
2019-03-29T07:51:09.019Z,10.60
2019-03-29T07:52:08.992Z,10.60
2019-03-29T07:53:08.981Z,10.20
2019-03-29T07:54:08.975Z,9.70
2019-03-29T07:55:08.968Z,9.70
2019-03-29T07:56:08.952Z,9.80
2019-03-29T07:57:08.940Z,9.00
2019-03-29T07:58:08.933Z,9.20
2019-03-29T07:59:08.922Z,9.40
2019-03-29T08:00:08.941Z,9.50
2019-03-29T08:01:08.897Z,9.80
2019-03-29T08:02:08.884Z,10.30
2019-03-29T08:03:08.873Z,9.20
2019-03-29T08:04:08.862Z,9.20
2019-03-29T08:05:08.945Z,8.20
2019-03-29T08:06:08.923Z,8.70
2019-03-29T08:07:08.832Z,7.80
2019-03-29T08:08:22.793Z,6.90
2019-03-29T08:09:21.539Z,6.60
2019-03-29T08:10:23.628Z,6.90
2019-03-29T08:11:09.785Z,6.70
2019-03-29T08:12:08.847Z,7.30
2019-03-29T08:13:08.768Z,6.70
2019-03-29T08:14:08.755Z,6.80
2019-03-29T08:15:09.865Z,6.50
2019-03-29T08:16:08.737Z,7.10
2019-03-29T08:17:08.742Z,7.90
2019-03-29T08:18:08.718Z,8.00
2019-03-29T08:19:09.574Z,8.00
2019-03-29T08:20:37.395Z,8.30
2019-03-29T08:21:09.678Z,9.00
2019-03-29T08:22:08.678Z,8.70
2019-03-29T08:23:08.676Z,8.60
2019-03-29T08:24:08.690Z,9.40
2019-03-29T08:25:08.645Z,9.10
2019-03-29T08:26:08.629Z,9.20
2019-03-29T08:27:08.616Z,9.80
2019-03-29T08:28:08.605Z,9.60
2019-03-29T08:29:08.595Z,9.70
2019-03-29T08:30:08.602Z,9.70
2019-03-29T08:31:08.578Z,10.50
2019-03-29T08:32:08.573Z,10.30
2019-03-29T08:33:08.579Z,10.00
2019-03-29T08:34:08.629Z,10.40
2019-03-29T08:35:08.550Z,9.90
2019-03-29T08:36:08.549Z,9.90
2019-03-29T08:37:08.510Z,9.40
2019-03-29T08:38:08.501Z,10.30
2019-03-29T08:39:10.252Z,9.80
2019-03-29T08:40:08.499Z,9.70
2019-03-29T08:41:08.476Z,9.80
2019-03-29T08:42:08.454Z,9.70
2019-03-29T08:43:08.448Z,10.00
2019-03-29T08:44:11.675Z,10.50
2019-03-29T08:45:08.422Z,9.80
2019-03-29T08:46:08.414Z,9.60
2019-03-29T08:47:08.400Z,9.60
2019-03-29T08:48:08.394Z,9.80
2019-03-29T08:49:08.377Z,9.60
2019-03-29T08:50:08.373Z,9.90
2019-03-29T08:51:08.366Z,9.70
2019-03-29T08:52:08.346Z,9.60
2019-03-29T08:53:08.334Z,9.10
2019-03-29T08:54:08.331Z,9.90
2019-03-29T08:55:08.316Z,9.30
2019-03-29T08:56:08.375Z,9.80
2019-03-29T08:57:10.623Z,9.30
2019-03-29T08:58:08.290Z,9.80
2019-03-29T08:59:08.274Z,9.60
2019-03-29T09:00:08.271Z,9.60
2019-03-29T09:01:08.257Z,8.90
2019-03-29T09:02:08.242Z,8.90
2019-03-29T09:03:08.229Z,9.30
2019-03-29T09:04:08.216Z,8.70
2019-03-29T09:05:08.207Z,8.60
2019-03-29T09:06:08.199Z,9.10
2019-03-29T09:07:08.183Z,9.30
2019-03-29T09:08:08.173Z,8.70
2019-03-29T09:09:08.296Z,8.80
2019-03-29T09:10:08.151Z,9.10
2019-03-29T09:11:08.162Z,9.00
2019-03-29T09:12:14.205Z,8.70
2019-03-29T09:13:09.116Z,9.20
2019-03-29T09:14:08.107Z,8.90
2019-03-29T09:15:08.097Z,8.90
2019-03-29T09:16:08.116Z,9.10
2019-03-29T09:17:08.079Z,8.80
2019-03-29T09:18:08.061Z,8.70
2019-03-29T09:19:08.053Z,9.10
2019-03-29T09:20:10.571Z,9.00
2019-03-29T09:21:08.043Z,8.60
2019-03-29T09:22:08.028Z,9.10
2019-03-29T09:23:10.480Z,9.30
2019-03-29T09:24:21.221Z,9.40
2019-03-29T09:25:09.007Z,9.80
2019-03-29T09:26:07.988Z,9.40
2019-03-29T09:27:07.968Z,10.10
2019-03-29T09:28:07.959Z,10.10
2019-03-29T09:29:07.945Z,9.80
2019-03-29T09:30:07.936Z,9.80
2019-03-29T09:31:07.945Z,8.80
2019-03-29T09:32:07.913Z,9.50
2019-03-29T09:33:07.906Z,9.40
2019-03-29T09:34:07.891Z,9.80
2019-03-29T09:35:07.878Z,10.10
2019-03-29T09:36:07.877Z,9.30
2019-03-29T09:37:07.857Z,9.30
2019-03-29T09:38:07.879Z,9.10
2019-03-29T09:39:07.835Z,9.80
2019-03-29T09:40:07.825Z,10.40
2019-03-29T09:41:07.829Z,10.70
2019-03-29T09:42:09.590Z,10.80
2019-03-29T09:43:08.485Z,10.00
2019-03-29T09:44:07.780Z,9.10
2019-03-29T09:45:07.777Z,9.60
2019-03-29T09:46:07.797Z,9.60
2019-03-29T09:47:07.751Z,9.00
2019-03-29T09:48:07.748Z,8.80
2019-03-29T09:49:08.503Z,8.30
2019-03-29T09:50:10.306Z,8.30
2019-03-29T09:51:07.764Z,8.60
2019-03-29T09:52:07.756Z,8.50
2019-03-29T09:53:07.712Z,8.50
2019-03-29T09:54:07.670Z,8.40
2019-03-29T09:55:07.660Z,9.10
2019-03-29T09:56:07.655Z,8.90
2019-03-29T09:57:09.907Z,9.20
2019-03-29T09:58:07.647Z,9.50
2019-03-29T09:59:07.720Z,10.30
2019-03-29T10:00:19.157Z,9.80
2019-03-29T10:01:08.641Z,9.70
2019-03-29T10:02:07.596Z,8.30
2019-03-29T10:03:07.574Z,8.30
2019-03-29T10:04:07.569Z,8.10
2019-03-29T10:05:07.548Z,8.10
2019-03-29T10:06:07.581Z,8.00
2019-03-29T10:07:07.543Z,8.50
2019-03-29T10:08:07.515Z,9.20
2019-03-29T10:09:07.510Z,9.60
2019-03-29T10:10:07.495Z,8.70
2019-03-29T10:11:07.491Z,8.90
2019-03-29T10:12:07.475Z,8.60
2019-03-29T10:13:07.469Z,8.50
2019-03-29T10:14:07.457Z,8.00
2019-03-29T10:15:07.453Z,8.50
2019-03-29T10:16:07.434Z,7.90
2019-03-29T10:17:07.459Z,7.80
2019-03-29T10:18:07.409Z,8.00
2019-03-29T10:19:07.399Z,9.10
2019-03-29T10:20:07.388Z,8.40
2019-03-29T10:21:07.389Z,8.80
2019-03-29T10:22:07.431Z,8.70
2019-03-29T10:23:07.356Z,8.80
2019-03-29T10:24:07.366Z,8.30
2019-03-29T10:25:18.598Z,7.00
2019-03-29T10:26:08.345Z,7.60
2019-03-29T10:27:07.319Z,8.70
2019-03-29T10:28:07.309Z,9.60
2019-03-29T10:29:07.294Z,8.50
2019-03-29T10:30:07.288Z,8.20
2019-03-29T10:31:07.280Z,7.60
2019-03-29T10:32:09.414Z,7.30
2019-03-29T10:33:07.250Z,6.40
2019-03-29T10:34:07.254Z,6.60
2019-03-29T10:35:07.243Z,6.40
2019-03-29T10:36:07.222Z,6.70
2019-03-29T10:37:07.255Z,6.70
2019-03-29T10:38:07.200Z,6.90
2019-03-29T10:39:07.190Z,7.30
2019-03-29T10:40:07.178Z,7.40
2019-03-29T10:41:07.170Z,7.50
2019-03-29T10:42:07.174Z,7.50
2019-03-29T10:43:07.145Z,8.00
2019-03-29T10:44:07.151Z,7.90
2019-03-29T10:45:07.123Z,7.80
2019-03-29T10:46:07.113Z,8.00
2019-03-29T10:47:07.111Z,8.50
2019-03-29T10:48:07.097Z,8.90
2019-03-29T10:49:07.165Z,8.40
2019-03-29T10:50:07.072Z,7.60
2019-03-29T10:51:08.569Z,8.20
2019-03-29T10:52:07.076Z,8.00
2019-03-29T10:53:07.041Z,7.90
2019-03-29T10:54:07.028Z,8.30
2019-03-29T10:55:07.021Z,7.70
2019-03-29T10:56:07.021Z,8.80
2019-03-29T10:57:07.009Z,8.40
2019-03-29T10:58:09.741Z,7.70
2019-03-29T10:59:07.025Z,8.20
2019-03-29T11:00:06.975Z,8.50
2019-03-29T11:01:06.982Z,8.20
2019-03-29T11:02:06.975Z,8.50
2019-03-29T11:03:07.009Z,8.50
2019-03-29T11:04:06.956Z,7.50
2019-03-29T11:05:06.948Z,7.70
2019-03-29T11:06:06.946Z,7.10
2019-03-29T11:07:06.935Z,7.10
2019-03-29T11:08:06.882Z,7.60
2019-03-29T11:09:06.876Z,7.70
2019-03-29T11:10:06.864Z,7.20
2019-03-29T11:11:06.853Z,7.30
2019-03-29T11:12:06.840Z,7.50
2019-03-29T11:13:13.414Z,7.90
2019-03-29T11:14:07.843Z,7.70
2019-03-29T11:15:07.005Z,7.60
2019-03-29T11:16:06.797Z,7.70
2019-03-29T11:17:06.834Z,7.80
2019-03-29T11:18:06.780Z,7.60
2019-03-29T11:19:06.789Z,7.70
2019-03-29T11:20:06.772Z,7.10
2019-03-29T11:21:06.748Z,7.40
2019-03-29T11:22:06.751Z,7.00
2019-03-29T11:23:06.725Z,7.00
2019-03-29T11:24:09.145Z,6.90
2019-03-29T11:25:06.819Z,8.10
2019-03-29T11:26:06.691Z,7.60
2019-03-29T11:27:06.692Z,7.40
2019-03-29T11:28:06.671Z,7.20
2019-03-29T11:29:06.683Z,7.30
2019-03-29T11:30:06.651Z,7.10
2019-03-29T11:31:06.658Z,7.10
2019-03-29T11:32:06.665Z,6.90
2019-03-29T11:33:06.620Z,7.00
2019-03-29T11:34:06.609Z,6.90
2019-03-29T11:35:06.608Z,6.90
2019-03-29T11:36:06.594Z,6.90
2019-03-29T11:37:06.579Z,6.20
2019-03-29T11:38:06.571Z,7.00
2019-03-29T11:39:06.556Z,6.60
2019-03-29T11:40:06.555Z,6.60
2019-03-29T11:41:06.546Z,6.70
2019-03-29T11:42:06.526Z,7.80
2019-03-29T11:43:06.515Z,7.20
2019-03-29T11:44:06.511Z,7.20
2019-03-29T11:45:06.491Z,7.50
2019-03-29T11:46:06.504Z,7.40
2019-03-29T11:47:06.472Z,6.90
2019-03-29T11:48:09.047Z,7.80
2019-03-29T11:49:06.525Z,7.30
2019-03-29T11:50:06.444Z,7.60
2019-03-29T11:51:18.691Z,7.40
2019-03-29T11:52:07.522Z,8.00
2019-03-29T11:53:06.456Z,7.40
2019-03-29T11:54:07.154Z,6.80
2019-03-29T11:55:06.437Z,6.60
2019-03-29T11:56:06.452Z,7.40
2019-03-29T11:57:06.396Z,6.70
2019-03-29T11:58:06.415Z,7.00
2019-03-29T11:59:06.433Z,8.40
2019-03-29T12:00:06.427Z,7.80
2019-03-29T12:01:06.460Z,7.50
2019-03-29T12:02:06.491Z,7.80
2019-03-29T12:03:09.139Z,8.10
2019-03-29T12:04:06.413Z,8.40
2019-03-29T12:05:06.389Z,9.10
2019-03-29T12:06:06.275Z,9.10
2019-03-29T12:07:06.359Z,9.40
2019-03-29T12:08:06.267Z,9.70
2019-03-29T12:09:06.276Z,10.20
2019-03-29T12:10:06.251Z,9.10
2019-03-29T12:11:06.223Z,11.90
2019-03-29T12:12:06.249Z,9.00
2019-03-29T12:13:06.249Z,8.70
2019-03-29T12:14:06.193Z,8.80
2019-03-29T12:15:06.223Z,8.50
2019-03-29T12:16:06.167Z,9.00
2019-03-29T12:17:06.195Z,7.80
2019-03-29T12:18:06.184Z,7.40
2019-03-29T12:19:06.159Z,7.30
2019-03-29T12:20:06.132Z,8.20
2019-03-29T12:21:06.181Z,7.90
2019-03-29T12:22:06.143Z,7.40
2019-03-29T12:23:06.118Z,7.90
2019-03-29T12:24:06.088Z,8.60
2019-03-29T12:25:06.102Z,9.10
2019-03-29T12:26:06.080Z,8.40
2019-03-29T12:27:06.068Z,9.40
2019-03-29T12:28:06.053Z,8.30
2019-03-29T12:29:06.042Z,9.60
2019-03-29T12:30:06.191Z,9.70
2019-03-29T12:31:06.021Z,10.20
2019-03-29T12:32:05.997Z,8.20
2019-03-29T12:33:06.010Z,7.80
2019-03-29T12:34:05.974Z,8.00
2019-03-29T12:35:05.970Z,8.00
2019-03-29T12:36:05.960Z,7.80
2019-03-29T12:37:06.080Z,8.90
2019-03-29T12:38:05.949Z,10.50
2019-03-29T12:39:05.921Z,9.70
2019-03-29T12:40:05.913Z,8.10
2019-03-29T12:41:05.901Z,8.10
2019-03-29T12:42:05.896Z,8.00
2019-03-29T12:43:05.893Z,7.50
2019-03-29T12:44:05.877Z,8.70
2019-03-29T12:45:05.859Z,8.20
2019-03-29T12:46:05.850Z,7.70
2019-03-29T12:47:05.837Z,8.50
2019-03-29T12:48:05.849Z,8.30
2019-03-29T12:49:05.824Z,8.10
2019-03-29T12:50:05.808Z,8.60
2019-03-29T12:51:05.801Z,7.70
2019-03-29T12:52:05.788Z,8.00
2019-03-29T12:53:05.784Z,8.30
2019-03-29T12:54:05.769Z,8.00
2019-03-29T12:55:05.753Z,8.70
2019-03-29T12:56:05.751Z,7.90
2019-03-29T12:57:07.005Z,8.00
2019-03-29T12:58:05.721Z,7.80
2019-03-29T12:59:05.713Z,8.30
2019-03-29T13:00:05.707Z,8.60
2019-03-29T13:01:05.728Z,8.00
2019-03-29T13:02:05.680Z,8.60